Terminal Aerodrome Forecast
Issued by NWS Mt. Holly, NJ

Home | Current Version | Previous Version | Text Only | Print | Product List | Glossary On
Versions: 1 2 3 4 5 6 7 8 9 10 11 12 13 14 15 16 17 18 19 20 21 22 23 24 25 26
582
FTUS41 KPHI 261737
TAFPHL
TAF
KPHL 261737Z 2618/2724 08010G18KT P6SM OVC015
     FM270000 08010KT 6SM BR OVC010
     FM270500 09007KT 4SM BR OVC005
     FM270700 12006KT 4SM -RA BR OVC003
     FM271400 20009KT P6SM BKN015
     FM271800 23010KT P6SM SCT030 BKN200=

USA.gov is the U.S. government's official web portal to all federal, state and local government web resources and services.